Time;durP1;ratioP1;P1;durP2;ratioP2;P2;SDS_P1;SDS_P2;PMS_P1;PMS_P2;Temp;Humidity;BMP_temperature;BMP_pressure;BME280_temperature;BME280_humidity;BME280_pressure;Samples;Min_cycle;Max_cycle;Signal;HPM_P1;HPM_P2
2024/04/19 00:01:42;;;;;;;8.53;4.40;;;;;;;;;;5271402;27;20081;-77
2024/04/19 00:04:08;;;;;;;8.07;4.47;;;;;;;;;;5251095;27;19999;-77
2024/04/19 00:06:33;;;;;;;8.20;4.80;;;;;;;;;;5200652;27;20016;-78
2024/04/19 00:08:59;;;;;;;7.77;5.10;;;;;;;;;;5201596;27;20350;-77
2024/04/19 00:11:25;;;;;;;11.97;5.60;;;;;;;;;;5204779;27;20014;-78
2024/04/19 00:13:52;;;;;;;11.03;5.03;;;;;;;;;;5239419;27;19998;-77
2024/04/19 00:16:17;;;;;;;10.63;4.73;;;;;;;;;;5270462;27;20013;-77
2024/04/19 00:18:43;;;;;;;8.10;5.33;;;;;;;;;;5269708;27;20306;-77
2024/04/19 00:21:09;;;;;;;18.87;5.67;;;;;;;;;;5261245;27;20015;-76
2024/04/19 00:23:36;;;;;;;9.07;5.20;;;;;;;;;;5208219;27;20014;-76
2024/04/19 00:26:01;;;;;;;9.30;5.07;;;;;;;;;;5237167;27;20031;-76
2024/04/19 00:28:28;;;;;;;9.83;5.53;;;;;;;;;;5236973;27;19999;-77
2024/04/19 00:30:57;;;;;;;9.40;4.77;;;;;;;;;;5239409;27;20003;-77
2024/04/19 00:33:23;;;;;;;8.57;5.57;;;;;;;;;;5236427;27;20017;-75
2024/04/19 00:35:48;;;;;;;8.67;5.13;;;;;;;;;;5208528;27;20003;-78
2024/04/19 00:38:14;;;;;;;7.73;4.70;;;;;;;;;;5236352;27;20018;-74
2024/04/19 00:40:41;;;;;;;7.83;4.60;;;;;;;;;;5236362;27;20003;-78
2024/04/19 00:43:06;;;;;;;7.17;4.20;;;;;;;;;;5235628;27;20007;-77
2024/04/19 00:45:37;;;;;;;10.63;5.33;;;;;;;;;;5236022;27;20458;-77
2024/04/19 00:48:16;;;;;;;6.37;4.20;;;;;;;;;;5236249;27;20003;-77
2024/04/19 00:50:44;;;;;;;9.07;4.97;;;;;;;;;;5240295;27;20050;-78
2024/04/19 00:53:15;;;;;;;12.70;4.77;;;;;;;;;;5242704;27;20084;-77
2024/04/19 00:55:41;;;;;;;10.30;4.90;;;;;;;;;;5214776;27;20013;-76
2024/04/19 00:58:07;;;;;;;14.70;4.70;;;;;;;;;;5272175;27;19999;-77
2024/04/19 01:00:33;;;;;;;13.93;5.73;;;;;;;;;;5242094;27;20006;-77
2024/04/19 01:02:58;;;;;;;8.50;4.80;;;;;;;;;;5241966;27;20363;-76
2024/04/19 01:05:24;;;;;;;6.47;4.10;;;;;;;;;;5271783;27;20455;-77
2024/04/19 01:07:50;;;;;;;7.27;4.43;;;;;;;;;;5242232;27;20335;-77
2024/04/19 01:10:17;;;;;;;6.80;4.43;;;;;;;;;;5214338;27;20326;-75
2024/04/19 01:12:43;;;;;;;9.40;4.93;;;;;;;;;;5272028;27;20006;-78
2024/04/19 01:15:22;;;;;;;11.23;4.90;;;;;;;;;;5242021;27;20017;-78
2024/04/19 01:17:47;;;;;;;11.30;5.17;;;;;;;;;;5241588;27;20014;-76
2024/04/19 01:20:13;;;;;;;10.10;4.80;;;;;;;;;;5242139;27;20532;-76
2024/04/19 01:22:40;;;;;;;8.73;4.63;;;;;;;;;;5241637;27;20017;-77
2024/04/19 01:25:17;;;;;;;10.80;4.67;;;;;;;;;;5241717;27;20002;-77
2024/04/19 01:27:42;;;;;;;8.97;4.70;;;;;;;;;;5271557;27;20446;-76
2024/04/19 01:30:08;;;;;;;5.93;4.37;;;;;;;;;;5271643;27;20003;-77
2024/04/19 01:32:35;;;;;;;7.43;4.70;;;;;;;;;;5241584;27;20042;-77
2024/04/19 01:35:01;;;;;;;9.83;5.00;;;;;;;;;;5241320;27;20050;-77
2024/04/19 01:37:26;;;;;;;9.13;4.47;;;;;;;;;;5241002;27;20010;-77
2024/04/19 01:39:52;;;;;;;9.27;4.67;;;;;;;;;;5271479;27;20073;-77
2024/04/19 01:42:17;;;;;;;6.20;4.27;;;;;;;;;;5241374;27;20014;-76
2024/04/19 01:44:43;;;;;;;11.17;4.83;;;;;;;;;;5271799;27;20469;-76
2024/04/19 01:47:08;;;;;;;8.50;4.47;;;;;;;;;;5271475;27;20013;-76
2024/04/19 01:49:34;;;;;;;8.70;4.90;;;;;;;;;;5241060;27;20002;-78
2024/04/19 01:51:59;;;;;;;8.30;4.07;;;;;;;;;;5242803;27;20486;-78
2024/04/19 01:54:25;;;;;;;9.30;4.90;;;;;;;;;;5274551;27;20439;-77
2024/04/19 01:56:53;;;;;;;8.10;4.20;;;;;;;;;;5274052;27;20076;-78
2024/04/19 01:59:18;;;;;;;9.20;3.70;;;;;;;;;;5244269;27;20454;-74
2024/04/19 02:01:44;;;;;;;7.57;4.40;;;;;;;;;;5274702;27;20542;-78
2024/04/19 02:04:09;;;;;;;7.50;4.00;;;;;;;;;;5274403;27;20330;-76
2024/04/19 02:06:37;;;;;;;6.77;3.77;;;;;;;;;;5273482;27;19999;-76
2024/04/19 02:09:03;;;;;;;4.63;3.87;;;;;;;;;;5244838;27;20022;-76
2024/04/19 02:11:30;;;;;;;7.70;3.63;;;;;;;;;;5243868;27;20012;-77
2024/04/19 02:13:56;;;;;;;12.97;3.47;;;;;;;;;;5244092;27;20350;-75
2024/04/19 02:16:21;;;;;;;6.20;3.43;;;;;;;;;;5273920;27;19999;-77
2024/04/19 02:18:47;;;;;;;10.37;3.90;;;;;;;;;;5244288;27;20002;-77
2024/04/19 02:21:13;;;;;;;8.13;4.53;;;;;;;;;;5274201;27;19994;-78
2024/04/19 02:23:41;;;;;;;8.73;4.17;;;;;;;;;;5244422;27;20013;-78
2024/04/19 02:26:08;;;;;;;6.70;3.30;;;;;;;;;;5274490;27;20340;-77
2024/04/19 02:31:20;;;;;;;8.63;4.13;;;;;;;;;;5273989;27;20013;-79
2024/04/19 02:33:46;;;;;;;7.83;4.33;;;;;;;;;;5243956;27;20006;-79
2024/04/19 02:36:11;;;;;;;7.57;4.60;;;;;;;;;;5244134;27;20446;-76
2024/04/19 02:38:37;;;;;;;6.13;4.60;;;;;;;;;;5273482;27;20077;-77
2024/04/19 02:41:04;;;;;;;13.17;4.30;;;;;;;;;;5273883;27;20017;-77
2024/04/19 02:43:30;;;;;;;7.17;4.27;;;;;;;;;;5273302;27;20002;-75
2024/04/19 02:45:56;;;;;;;6.43;4.10;;;;;;;;;;5244111;27;20043;-77
2024/04/19 02:48:22;;;;;;;7.27;4.20;;;;;;;;;;5243766;27;20010;-79
2024/04/19 02:50:49;;;;;;;7.70;3.77;;;;;;;;;;5273122;27;20002;-77
2024/04/19 02:53:18;;;;;;;8.03;4.30;;;;;;;;;;5244227;27;20014;-79
2024/04/19 02:55:43;;;;;;;6.23;4.10;;;;;;;;;;5243973;27;20343;-76
2024/04/19 02:58:09;;;;;;;10.07;4.63;;;;;;;;;;5243755;27;20128;-77
2024/04/19 03:00:35;;;;;;;5.43;4.03;;;;;;;;;;5243336;27;20362;-79
2024/04/19 03:03:00;;;;;;;8.20;4.20;;;;;;;;;;5273804;27;20033;-78
2024/04/19 03:05:26;;;;;;;10.77;7.07;;;;;;;;;;5273284;27;20014;-78
2024/04/19 03:07:51;;;;;;;6.10;4.30;;;;;;;;;;5273588;27;20013;-79
2024/04/19 03:10:17;;;;;;;8.33;4.50;;;;;;;;;;5243793;27;20014;-79
2024/04/19 03:12:42;;;;;;;13.80;5.03;;;;;;;;;;5243788;27;20058;-78
2024/04/19 03:15:09;;;;;;;9.70;4.67;;;;;;;;;;5273762;27;20014;-78
2024/04/19 03:17:35;;;;;;;8.13;4.57;;;;;;;;;;5243422;27;20006;-77
2024/04/19 03:20:00;;;;;;;9.33;5.13;;;;;;;;;;5273447;27;20009;-79
2024/04/19 03:22:26;;;;;;;7.93;4.53;;;;;;;;;;5243102;27;20027;-78
2024/04/19 03:24:52;;;;;;;6.93;4.00;;;;;;;;;;5243513;27;20137;-77
2024/04/19 03:27:17;;;;;;;8.23;4.17;;;;;;;;;;5273939;27;20524;-78
2024/04/19 03:29:49;;;;;;;8.83;4.80;;;;;;;;;;5274407;27;20014;-77
2024/04/19 03:32:14;;;;;;;7.83;3.70;;;;;;;;;;5243544;27;20080;-81
2024/04/19 03:34:42;;;;;;;6.33;3.97;;;;;;;;;;5215022;27;20006;-79
2024/04/19 03:37:07;;;;;;;6.17;3.80;;;;;;;;;;5243457;27;20080;-79
2024/04/19 03:39:33;;;;;;;5.53;3.63;;;;;;;;;;5242861;27;20014;-78
2024/04/19 03:41:58;;;;;;;7.00;3.93;;;;;;;;;;5272814;27;20010;-76
2024/04/19 03:47:08;;;;;;;8.53;3.77;;;;;;;;;;5273045;27;20081;-78
2024/04/19 03:49:34;;;;;;;4.40;3.90;;;;;;;;;;5243121;27;20010;-78
2024/04/19 03:51:59;;;;;;;6.47;3.73;;;;;;;;;;5242954;27;20018;-77
2024/04/19 03:54:25;;;;;;;5.77;3.53;;;;;;;;;;5273084;27;20377;-76
2024/04/19 03:56:50;;;;;;;7.90;3.67;;;;;;;;;;5243686;27;20017;-78
2024/04/19 03:59:16;;;;;;;5.53;3.77;;;;;;;;;;5273071;27;20504;-78
2024/04/19 04:01:41;;;;;;;4.00;2.83;;;;;;;;;;5242998;27;20033;-78
2024/04/19 04:04:07;;;;;;;4.87;3.17;;;;;;;;;;5273091;27;20017;-77
2024/04/19 04:06:33;;;;;;;6.53;3.20;;;;;;;;;;5243556;27;20105;-79
2024/04/19 04:08:59;;;;;;;5.47;3.20;;;;;;;;;;5273801;27;20061;-77
2024/04/19 04:11:24;;;;;;;6.17;3.07;;;;;;;;;;5243684;27;20034;-77
2024/04/19 04:13:50;;;;;;;3.00;2.70;;;;;;;;;;5242190;27;20012;-77
2024/04/19 04:16:15;;;;;;;4.27;2.90;;;;;;;;;;5243006;27;20006;-76
2024/04/19 04:18:41;;;;;;;2.90;2.50;;;;;;;;;;5272484;27;20121;-78
2024/04/19 04:21:07;;;;;;;2.60;2.40;;;;;;;;;;5274550;27;19998;-77
2024/04/19 04:23:33;;;;;;;4.30;2.33;;;;;;;;;;5273572;27;20461;-79
2024/04/19 04:25:59;;;;;;;2.83;2.33;;;;;;;;;;5243243;27;20080;-77
2024/04/19 04:28:24;;;;;;;3.83;2.60;;;;;;;;;;5242881;27;20031;-79
2024/04/19 04:30:50;;;;;;;3.43;2.50;;;;;;;;;;5242473;27;20007;-79
2024/04/19 04:33:16;;;;;;;4.00;2.70;;;;;;;;;;5214693;27;20061;-79
2024/04/19 04:35:44;;;;;;;2.57;2.17;;;;;;;;;;5272566;27;20014;-80
2024/04/19 04:38:10;;;;;;;4.70;2.70;;;;;;;;;;5243139;27;20038;-78
2024/04/19 04:40:36;;;;;;;2.83;2.13;;;;;;;;;;5215228;27;20007;-76
2024/04/19 04:43:04;;;;;;;2.97;2.60;;;;;;;;;;5272433;27;20014;-76
2024/04/19 04:45:30;;;;;;;3.13;2.77;;;;;;;;;;5242138;27;20463;-78
2024/04/19 04:47:56;;;;;;;3.57;2.30;;;;;;;;;;5242616;27;20005;-78
2024/04/19 04:50:23;;;;;;;3.33;2.77;;;;;;;;;;5242517;27;20017;-77
2024/04/19 04:52:49;;;;;;;4.67;3.10;;;;;;;;;;5242227;27;20002;-77
2024/04/19 04:55:15;;;;;;;5.17;2.80;;;;;;;;;;5242345;27;20013;-77
2024/04/19 04:57:41;;;;;;;3.13;2.63;;;;;;;;;;5271942;27;20338;-79
2024/04/19 05:00:10;;;;;;;3.27;2.97;;;;;;;;;;5272624;27;20137;-79
2024/04/19 05:02:37;;;;;;;7.50;3.90;;;;;;;;;;5242381;27;20017;-77
2024/04/19 05:05:03;;;;;;;4.77;3.70;;;;;;;;;;5242749;27;20009;-78
2024/04/19 05:07:29;;;;;;;4.63;3.13;;;;;;;;;;5272359;27;20018;-77
2024/04/19 05:09:55;;;;;;;10.50;4.23;;;;;;;;;;5243178;27;20014;-79
2024/04/19 05:12:22;;;;;;;5.23;3.77;;;;;;;;;;5272291;27;20544;-76
2024/04/19 05:14:47;;;;;;;7.17;4.10;;;;;;;;;;5242064;27;20003;-78
2024/04/19 05:17:13;;;;;;;4.67;3.63;;;;;;;;;;5304288;27;20052;-76
2024/04/19 05:19:38;;;;;;;5.43;4.43;;;;;;;;;;5239972;27;20011;-75
2024/04/19 05:22:04;;;;;;;4.80;3.83;;;;;;;;;;5256275;27;20001;-76
2024/04/19 05:24:30;;;;;;;4.70;3.50;;;;;;;;;;5274549;27;19998;-75
2024/04/19 05:26:58;;;;;;;9.10;4.80;;;;;;;;;;5254865;27;20003;-78
2024/04/19 05:29:25;;;;;;;5.07;3.37;;;;;;;;;;5271690;27;20081;-79
2024/04/19 05:31:52;;;;;;;7.10;3.63;;;;;;;;;;5271668;27;20003;-78
2024/04/19 05:34:17;;;;;;;7.33;4.20;;;;;;;;;;5271732;27;20009;-78
2024/04/19 05:36:43;;;;;;;7.10;4.13;;;;;;;;;;5266023;27;20002;-77
2024/04/19 05:39:08;;;;;;;6.03;4.03;;;;;;;;;;5271025;27;20026;-77
2024/04/19 05:41:34;;;;;;;6.17;4.77;;;;;;;;;;5264598;27;20013;-81
2024/04/19 05:43:59;;;;;;;6.07;4.90;;;;;;;;;;5271247;27;20006;-80
2024/04/19 05:46:25;;;;;;;7.77;4.43;;;;;;;;;;5271871;27;20073;-78
2024/04/19 05:48:51;;;;;;;9.67;4.57;;;;;;;;;;5247823;27;20011;-79
2024/04/19 05:51:16;;;;;;;6.90;4.50;;;;;;;;;;5273693;27;19997;-79
2024/04/19 05:53:42;;;;;;;6.40;3.60;;;;;;;;;;5247448;27;20463;-76
2024/04/19 05:56:08;;;;;;;5.50;3.90;;;;;;;;;;5253324;27;20077;-76
2024/04/19 05:58:33;;;;;;;6.43;3.73;;;;;;;;;;5280388;27;19999;-77
2024/04/19 06:00:59;;;;;;;6.20;4.37;;;;;;;;;;5270558;27;20002;-76
2024/04/19 06:03:24;;;;;;;6.00;4.03;;;;;;;;;;5263373;27;20033;-74
2024/04/19 06:05:51;;;;;;;6.63;4.17;;;;;;;;;;5266332;27;20533;-79
2024/04/19 06:08:17;;;;;;;7.73;4.73;;;;;;;;;;5275794;27;20002;-78
2024/04/19 06:10:43;;;;;;;7.03;4.87;;;;;;;;;;5242817;27;19998;-75
2024/04/19 06:13:10;;;;;;;8.23;4.60;;;;;;;;;;5252672;27;20012;-79
2024/04/19 06:15:38;;;;;;;7.33;4.90;;;;;;;;;;5252213;27;20002;-79
2024/04/19 06:18:04;;;;;;;7.13;4.73;;;;;;;;;;5256533;27;19998;-78
2024/04/19 06:20:29;;;;;;;7.33;4.57;;;;;;;;;;5247748;27;20076;-78
2024/04/19 06:22:55;;;;;;;5.17;3.97;;;;;;;;;;5235002;27;20113;-76
2024/04/19 06:25:20;;;;;;;7.67;5.33;;;;;;;;;;5229151;27;20018;-79
2024/04/19 06:27:49;;;;;;;7.68;5.28;;;;;;;;;;5275030;27;20021;-75
2024/04/19 06:30:15;;;;;;;8.13;4.67;;;;;;;;;;5248797;27;20005;-75
2024/04/19 06:32:40;;;;;;;9.30;4.97;;;;;;;;;;5261127;27;20021;-79
2024/04/19 06:35:08;;;;;;;10.47;5.00;;;;;;;;;;5278330;27;20474;-75
2024/04/19 06:37:33;;;;;;;7.22;4.68;;;;;;;;;;5270675;27;20002;-79
2024/04/19 06:39:59;;;;;;;7.32;5.07;;;;;;;;;;5274212;27;20034;-76
2024/04/19 06:42:26;;;;;;;6.63;4.53;;;;;;;;;;5252251;27;20010;-76
2024/04/19 06:44:51;;;;;;;5.47;4.83;;;;;;;;;;5241960;27;20680;-75
2024/04/19 06:47:17;;;;;;;8.53;5.00;;;;;;;;;;5274416;27;20133;-75
2024/04/19 06:49:43;;;;;;;7.22;4.53;;;;;;;;;;5253523;27;20028;-79
2024/04/19 06:52:12;;;;;;;5.83;4.77;;;;;;;;;;5237968;27;20141;-79
2024/04/19 06:54:37;;;;;;;8.30;5.20;;;;;;;;;;5254259;27;20006;-76
2024/04/19 06:57:03;;;;;;;6.28;4.65;;;;;;;;;;5255046;27;20024;-79
2024/04/19 06:59:28;;;;;;;5.40;4.32;;;;;;;;;;5261610;27;20048;-79
2024/04/19 07:01:54;;;;;;;6.15;4.78;;;;;;;;;;5271200;27;20025;-77
2024/04/19 07:04:20;;;;;;;8.70;5.03;;;;;;;;;;5247753;27;20805;-76
2024/04/19 07:06:45;;;;;;;6.45;4.88;;;;;;;;;;5252269;27;20006;-74
2024/04/19 07:09:13;;;;;;;6.90;4.70;;;;;;;;;;5277355;27;20520;-78
2024/04/19 07:11:44;;;;;;;7.53;4.97;;;;;;;;;;5251160;27;20006;-80
2024/04/19 07:14:14;;;;;;;10.35;5.03;;;;;;;;;;5215047;27;20049;-79
2024/04/19 07:16:39;;;;;;;6.15;4.43;;;;;;;;;;5244885;27;20425;-80
2024/04/19 07:19:05;;;;;;;7.30;5.13;;;;;;;;;;5275646;27;20002;-75
2024/04/19 07:21:31;;;;;;;7.63;5.45;;;;;;;;;;5275065;27;20422;-76
2024/04/19 07:23:57;;;;;;;5.28;4.53;;;;;;;;;;5257330;27;20455;-78
2024/04/19 07:26:25;;;;;;;8.68;5.18;;;;;;;;;;5246261;27;20423;-77
2024/04/19 07:28:54;;;;;;;7.18;4.80;;;;;;;;;;5281103;27;19998;-77
2024/04/19 07:31:20;;;;;;;9.32;5.75;;;;;;;;;;5248427;27;20575;-77
2024/04/19 07:33:46;;;;;;;9.82;5.18;;;;;;;;;;5274890;27;20010;-76
2024/04/19 07:36:12;;;;;;;10.93;5.35;;;;;;;;;;5277081;27;20088;-75
2024/04/19 07:38:38;;;;;;;7.65;5.22;;;;;;;;;;5251026;27;20323;-80
2024/04/19 07:41:05;;;;;;;9.23;5.30;;;;;;;;;;5271983;27;20132;-77
2024/04/19 07:43:32;;;;;;;7.22;5.43;;;;;;;;;;5269806;27;20017;-75
2024/04/19 07:45:58;;;;;;;8.73;5.47;;;;;;;;;;5240590;27;20003;-77
2024/04/19 07:48:27;;;;;;;7.78;5.15;;;;;;;;;;5256285;27;20436;-80
2024/04/19 07:50:53;;;;;;;7.10;4.47;;;;;;;;;;5264182;27;20017;-76
2024/04/19 07:53:22;;;;;;;9.30;4.82;;;;;;;;;;5263190;27;19999;-75
2024/04/19 07:55:47;;;;;;;9.18;4.28;;;;;;;;;;5278141;27;20010;-76
2024/04/19 07:58:14;;;;;;;10.63;3.97;;;;;;;;;;5249166;27;20002;-79
2024/04/19 08:00:40;;;;;;;9.55;5.00;;;;;;;;;;5255061;27;20079;-77
2024/04/19 08:03:08;;;;;;;8.32;4.57;;;;;;;;;;5255159;27;20064;-79
2024/04/19 08:05:34;;;;;;;4.43;3.85;;;;;;;;;;5256796;27;20018;-75
2024/04/19 08:08:00;;;;;;;5.80;4.10;;;;;;;;;;5274052;27;20054;-78
2024/04/19 08:10:26;;;;;;;6.10;3.83;;;;;;;;;;5270794;27;20002;-78
2024/04/19 08:12:57;;;;;;;5.97;4.00;;;;;;;;;;5283149;27;20006;-76
2024/04/19 08:15:23;;;;;;;5.55;4.25;;;;;;;;;;5275868;27;20002;-78
2024/04/19 08:17:50;;;;;;;5.88;4.00;;;;;;;;;;5286867;27;20018;-79
2024/04/19 08:20:19;;;;;;;6.28;3.83;;;;;;;;;;5251730;27;20002;-80
2024/04/19 08:22:45;;;;;;;5.68;3.55;;;;;;;;;;5250335;27;20402;-78
2024/04/19 08:25:11;;;;;;;7.28;4.35;;;;;;;;;;5275608;27;20495;-77
2024/04/19 08:27:40;;;;;;;5.50;3.50;;;;;;;;;;5258492;27;20008;-76
2024/04/19 08:30:10;;;;;;;4.05;3.63;;;;;;;;;;5233246;27;20034;-79
2024/04/19 08:32:35;;;;;;;4.30;3.55;;;;;;;;;;5249612;27;20002;-73
2024/04/19 08:35:03;;;;;;;7.05;4.00;;;;;;;;;;5276621;27;20028;-78
2024/04/19 08:37:33;;;;;;;4.25;3.70;;;;;;;;;;5283882;27;20406;-77
2024/04/19 08:39:59;;;;;;;6.00;3.25;;;;;;;;;;5251313;27;20100;-78
2024/04/19 08:42:25;;;;;;;4.57;3.70;;;;;;;;;;5271521;27;20447;-77
2024/04/19 08:44:53;;;;;;;5.35;3.08;;;;;;;;;;5248698;27;20003;-80
2024/04/19 08:47:19;;;;;;;3.58;3.28;;;;;;;;;;5272106;27;20477;-80
2024/04/19 08:49:50;;;;;;;4.28;3.38;;;;;;;;;;5277408;27;20455;-81
2024/04/19 08:52:19;;;;;;;6.15;3.47;;;;;;;;;;5198201;27;20047;-77
2024/04/19 08:54:46;;;;;;;4.28;3.38;;;;;;;;;;5208715;27;20015;-76
2024/04/19 08:57:13;;;;;;;4.65;2.97;;;;;;;;;;5210033;27;20004;-79
2024/04/19 08:59:45;;;;;;;6.90;3.33;;;;;;;;;;5211969;27;20059;-82
2024/04/19 09:02:12;;;;;;;5.32;3.25;;;;;;;;;;5209494;27;20026;-78
2024/04/19 09:04:38;;;;;;;3.40;3.10;;;;;;;;;;5211982;27;20081;-81
2024/04/19 09:07:06;;;;;;;5.53;2.67;;;;;;;;;;5209662;27;20012;-77
2024/04/19 09:09:34;;;;;;;10.00;3.53;;;;;;;;;;5213415;27;20003;-79
2024/04/19 09:12:08;;;;;;;5.70;2.40;;;;;;;;;;5203622;27;20007;-77
2024/04/19 09:14:34;;;;;;;4.47;2.80;;;;;;;;;;5202626;27;19997;-76
2024/04/19 09:17:01;;;;;;;7.13;2.75;;;;;;;;;;5201309;27;20455;-82
2024/04/19 09:19:28;;;;;;;5.53;2.58;;;;;;;;;;5211376;27;20004;-83
2024/04/19 09:21:54;;;;;;;4.85;2.78;;;;;;;;;;5207904;27;20087;-80
2024/04/19 09:24:24;;;;;;;3.63;2.47;;;;;;;;;;5207414;27;20004;-74
2024/04/19 09:26:58;;;;;;;2.63;2.40;;;;;;;;;;5214362;27;20022;-78
2024/04/19 09:29:24;;;;;;;5.75;2.58;;;;;;;;;;5226498;27;20003;-79
2024/04/19 09:31:53;;;;;;;3.25;2.42;;;;;;;;;;5211890;27;20004;-74
2024/04/19 09:34:23;;;;;;;6.95;2.90;;;;;;;;;;5227006;27;20088;-78
2024/04/19 09:36:52;;;;;;;4.83;2.90;;;;;;;;;;5187563;27;20007;-78
2024/04/19 09:39:19;;;;;;;2.55;2.35;;;;;;;;;;5221053;27;20229;-78
2024/04/19 09:41:51;;;;;;;8.23;3.13;;;;;;;;;;5218939;27;20059;-81
2024/04/19 09:44:23;;;;;;;6.82;3.17;;;;;;;;;;5188647;27;20018;-78
2024/04/19 09:46:51;;;;;;;3.08;2.33;;;;;;;;;;5205776;27;19999;-81
2024/04/19 09:49:25;;;;;;;6.18;2.70;;;;;;;;;;5188991;27;20004;-77
2024/04/19 09:51:51;;;;;;;2.85;2.55;;;;;;;;;;5219512;27;20007;-77
2024/04/19 09:54:21;;;;;;;5.63;2.63;;;;;;;;;;5217134;27;20015;-78
2024/04/19 09:56:57;;;;;;;2.58;2.38;;;;;;;;;;5213417;27;20000;-82
2024/04/19 09:59:27;;;;;;;4.15;2.60;;;;;;;;;;5213879;27;20472;-79
2024/04/19 10:01:56;;;;;;;4.40;2.28;;;;;;;;;;5186644;27;20079;-78
2024/04/19 10:04:25;;;;;;;4.68;2.60;;;;;;;;;;5182997;27;20085;-80
2024/04/19 10:06:56;;;;;;;11.85;2.80;;;;;;;;;;5184309;27;19997;-77
2024/04/19 10:09:27;;;;;;;5.18;2.35;;;;;;;;;;5203436;27;19996;-81
2024/04/19 10:11:57;;;;;;;2.47;1.88;;;;;;;;;;5216429;27;20047;-79
2024/04/19 10:14:29;;;;;;;2.65;2.25;;;;;;;;;;5217341;27;20280;-80
2024/04/19 10:17:00;;;;;;;5.72;2.15;;;;;;;;;;5216888;27;20023;-80
2024/04/19 10:19:34;;;;;;;4.63;2.75;;;;;;;;;;5217235;27;20008;-79
2024/04/19 10:22:05;;;;;;;3.10;2.00;;;;;;;;;;5191659;27;20056;-79
2024/04/19 10:24:32;;;;;;;3.72;2.72;;;;;;;;;;5216766;27;20019;-81
2024/04/19 10:27:24;;;;;;;3.75;2.40;;;;;;;;;;5218290;27;20035;-81
2024/04/19 10:29:53;;;;;;;4.55;2.55;;;;;;;;;;5218094;27;20039;-80
2024/04/19 10:32:29;;;;;;;2.88;2.13;;;;;;;;;;5217477;27;20040;-82
2024/04/19 10:34:57;;;;;;;4.15;2.00;;;;;;;;;;5223128;27;20016;-80
2024/04/19 10:37:23;;;;;;;5.90;2.17;;;;;;;;;;5221717;27;20004;-81
2024/04/19 10:39:49;;;;;;;2.35;2.03;;;;;;;;;;5222379;27;20494;-81
2024/04/19 10:42:20;;;;;;;3.90;2.03;;;;;;;;;;5222379;27;20019;-81
2024/04/19 10:44:52;;;;;;;3.83;2.47;;;;;;;;;;5193004;27;20036;-78
2024/04/19 10:47:21;;;;;;;3.58;2.30;;;;;;;;;;5220602;27;20010;-79
2024/04/19 10:49:52;;;;;;;4.43;2.20;;;;;;;;;;5189453;27;20009;-78
2024/04/19 10:52:22;;;;;;;3.95;1.80;;;;;;;;;;5233726;27;20007;-77
2024/04/19 10:54:50;;;;;;;4.90;2.20;;;;;;;;;;5270662;27;19999;-81
2024/04/19 10:57:19;;;;;;;4.43;2.22;;;;;;;;;;5250202;27;20007;-78
2024/04/19 10:59:54;;;;;;;4.07;2.08;;;;;;;;;;5255307;27;20006;-82
2024/04/19 11:02:30;;;;;;;3.80;1.92;;;;;;;;;;5250539;27;20017;-80
2024/04/19 11:04:56;;;;;;;4.28;2.20;;;;;;;;;;5276237;27;20054;-78
2024/04/19 11:07:23;;;;;;;2.72;1.60;;;;;;;;;;5218956;27;20006;-78
2024/04/19 11:09:52;;;;;;;4.68;1.52;;;;;;;;;;5261030;27;19995;-78
2024/04/19 11:12:25;;;;;;;2.28;1.88;;;;;;;;;;5254217;27;20129;-86
2024/04/19 11:15:01;;;;;;;1.80;1.45;;;;;;;;;;5256235;27;20058;-75
2024/04/19 11:17:32;;;;;;;4.13;2.00;;;;;;;;;;5255320;27;20003;-80
2024/04/19 11:20:01;;;;;;;2.45;1.70;;;;;;;;;;5265681;27;19998;-79
2024/04/19 11:22:30;;;;;;;3.92;1.83;;;;;;;;;;5265741;27;20031;-80
2024/04/19 11:25:01;;;;;;;5.28;1.90;;;;;;;;;;5221293;27;20003;-79
2024/04/19 11:27:30;;;;;;;5.18;1.70;;;;;;;;;;5254014;27;19995;-79
2024/04/19 11:29:57;;;;;;;1.80;1.60;;;;;;;;;;5257339;27;20015;-78
2024/04/19 11:32:24;;;;;;;3.63;1.40;;;;;;;;;;5254951;27;20054;-80
2024/04/19 11:35:08;;;;;;;6.18;1.90;;;;;;;;;;5247447;27;20104;-77
2024/04/19 11:37:35;;;;;;;1.88;1.55;;;;;;;;;;5263344;27;20007;-81
2024/04/19 11:40:03;;;;;;;6.55;1.70;;;;;;;;;;5255048;27;20020;-79
2024/04/19 11:42:29;;;;;;;1.85;1.52;;;;;;;;;;5268491;27;20062;-80
2024/04/19 11:44:56;;;;;;;2.28;1.55;;;;;;;;;;5271655;27;20012;-79
2024/04/19 11:47:24;;;;;;;7.30;1.58;;;;;;;;;;5269486;27;19999;-80
2024/04/19 11:49:52;;;;;;;4.60;2.20;;;;;;;;;;5254672;27;20031;-77
2024/04/19 11:52:18;;;;;;;1.77;1.20;;;;;;;;;;5249371;27;20003;-81
2024/04/19 11:54:47;;;;;;;2.35;1.40;;;;;;;;;;5249406;27;20078;-80
2024/04/19 11:57:13;;;;;;;1.98;1.50;;;;;;;;;;5245314;27;20533;-77
2024/04/19 11:59:39;;;;;;;4.22;1.50;;;;;;;;;;5234482;27;20010;-76
2024/04/19 12:02:08;;;;;;;4.45;1.67;;;;;;;;;;5245466;27;20018;-78
2024/04/19 12:04:36;;;;;;;2.67;1.35;;;;;;;;;;5250542;27;20031;-80
2024/04/19 12:07:07;;;;;;;2.42;1.40;;;;;;;;;;5247888;27;20058;-76
2024/04/19 12:09:37;;;;;;;1.73;1.63;;;;;;;;;;5245910;27;20005;-78
2024/04/19 12:12:06;;;;;;;2.05;1.50;;;;;;;;;;5245351;27;20018;-79
2024/04/19 12:14:35;;;;;;;3.95;1.50;;;;;;;;;;5252900;27;20011;-79
2024/04/19 12:17:09;;;;;;;2.75;1.55;;;;;;;;;;5257928;27;20039;-78
2024/04/19 12:20:06;;;;;;;6.75;1.45;;;;;;;;;;5249072;27;19999;-80
2024/04/19 12:22:32;;;;;;;1.67;1.50;;;;;;;;;;5249335;27;20039;-81
2024/04/19 12:24:59;;;;;;;1.50;1.17;;;;;;;;;;5251645;27;20031;-81
2024/04/19 12:27:27;;;;;;;3.00;1.50;;;;;;;;;;5251961;27;20003;-78
2024/04/19 12:29:53;;;;;;;1.90;1.65;;;;;;;;;;5245543;27;20007;-80
2024/04/19 12:32:22;;;;;;;2.13;1.20;;;;;;;;;;5249828;27;20012;-77
2024/04/19 12:34:48;;;;;;;2.67;1.45;;;;;;;;;;5242734;27;20058;-82
2024/04/19 12:37:15;;;;;;;2.58;1.52;;;;;;;;;;5262774;27;20042;-81
2024/04/19 12:39:41;;;;;;;3.20;1.70;;;;;;;;;;5237337;27;20010;-78
2024/04/19 12:42:09;;;;;;;1.52;1.23;;;;;;;;;;5244727;27;19999;-79
2024/04/19 12:44:47;;;;;;;2.67;1.60;;;;;;;;;;5255039;27;20082;-80
2024/04/19 12:47:14;;;;;;;1.65;1.23;;;;;;;;;;5258412;27;19999;-78
2024/04/19 12:49:40;;;;;;;2.58;1.33;;;;;;;;;;5229862;27;20474;-78
2024/04/19 12:52:06;;;;;;;2.28;1.48;;;;;;;;;;5269976;27;20002;-77
2024/04/19 12:54:31;;;;;;;1.40;1.30;;;;;;;;;;5278767;27;20017;-79
2024/04/19 12:56:58;;;;;;;1.30;1.20;;;;;;;;;;5258095;27;20012;-80
2024/04/19 12:59:23;;;;;;;1.30;1.20;;;;;;;;;;5262915;27;20043;-77
2024/04/19 13:01:49;;;;;;;1.15;1.08;;;;;;;;;;5257941;27;20002;-79
2024/04/19 13:04:15;;;;;;;2.25;1.25;;;;;;;;;;5264303;27;20029;-79
2024/04/19 13:06:41;;;;;;;1.02;0.95;;;;;;;;;;5282217;27;20105;-80
2024/04/19 13:09:07;;;;;;;1.48;1.15;;;;;;;;;;5255552;27;19999;-80
2024/04/19 13:11:40;;;;;;;1.42;1.30;;;;;;;;;;5276667;27;20006;-82
2024/04/19 13:14:06;;;;;;;2.25;1.40;;;;;;;;;;5270608;27;20018;-79
2024/04/19 13:16:32;;;;;;;1.45;1.33;;;;;;;;;;5252057;27;19999;-79
2024/04/19 13:18:59;;;;;;;1.55;1.30;;;;;;;;;;5287761;27;20016;-81
2024/04/19 13:21:27;;;;;;;1.67;1.33;;;;;;;;;;5250749;27;20007;-81
2024/04/19 13:23:53;;;;;;;1.60;1.50;;;;;;;;;;5281860;27;20017;-80
2024/04/19 13:26:22;;;;;;;1.40;1.25;;;;;;;;;;5279139;27;20007;-79
2024/04/19 13:28:52;;;;;;;2.03;1.30;;;;;;;;;;5285208;27;20083;-81
2024/04/19 13:31:19;;;;;;;2.10;1.63;;;;;;;;;;5262220;27;20282;-77
2024/04/19 13:33:45;;;;;;;1.10;1.10;;;;;;;;;;5265403;27;20010;-80
2024/04/19 13:36:12;;;;;;;1.67;1.35;;;;;;;;;;5266287;27;20115;-81
2024/04/19 13:38:39;;;;;;;2.63;1.75;;;;;;;;;;5255665;27;20058;-79
2024/04/19 13:41:07;;;;;;;1.98;1.42;;;;;;;;;;5247323;27;20002;-78
2024/04/19 13:43:33;;;;;;;4.93;3.15;;;;;;;;;;5274635;27;20425;-73
2024/04/19 13:45:59;;;;;;;2.17;1.58;;;;;;;;;;5274657;27;20015;-79
2024/04/19 13:48:36;;;;;;;1.10;0.95;;;;;;;;;;5281404;27;20013;-81
2024/04/19 13:51:06;;;;;;;1.33;1.23;;;;;;;;;;5257268;27;21423;-80
2024/04/19 13:53:43;;;;;;;3.70;1.02;;;;;;;;;;5268156;27;20017;-79
2024/04/19 13:56:14;;;;;;;2.13;1.27;;;;;;;;;;5275219;27;20454;-81
2024/04/19 13:58:41;;;;;;;1.83;1.42;;;;;;;;;;5288927;27;20002;-80
2024/04/19 14:01:08;;;;;;;1.80;1.20;;;;;;;;;;5249409;27;20005;-79
2024/04/19 14:03:34;;;;;;;2.42;1.67;;;;;;;;;;5249338;27;20367;-82
2024/04/19 14:06:00;;;;;;;2.60;1.42;;;;;;;;;;5280719;27;20021;-80
2024/04/19 14:08:26;;;;;;;1.65;1.30;;;;;;;;;;5279625;27;20016;-79
2024/04/19 14:10:52;;;;;;;4.15;1.20;;;;;;;;;;5278652;27;20387;-77
2024/04/19 14:13:25;;;;;;;1.33;1.20;;;;;;;;;;5279935;27;20002;-80
2024/04/19 14:15:51;;;;;;;1.10;1.00;;;;;;;;;;5250367;27;20326;-80
2024/04/19 14:18:17;;;;;;;2.13;1.20;;;;;;;;;;5250299;27;20002;-78
2024/04/19 14:20:45;;;;;;;0.87;0.70;;;;;;;;;;5249579;27;20490;-79
2024/04/19 14:23:12;;;;;;;2.00;1.20;;;;;;;;;;5250067;27;20021;-79
2024/04/19 14:25:42;;;;;;;1.38;1.13;;;;;;;;;;5250018;27;20006;-81
2024/04/19 14:28:11;;;;;;;1.60;1.10;;;;;;;;;;5257413;27;20017;-79
2024/04/19 14:30:41;;;;;;;1.63;1.13;;;;;;;;;;5252687;27;20446;-80
2024/04/19 14:33:07;;;;;;;1.50;1.00;;;;;;;;;;5255763;27;20018;-79
2024/04/19 14:35:36;;;;;;;1.30;1.03;;;;;;;;;;5282108;27;20049;-82
2024/04/19 14:38:05;;;;;;;1.33;0.88;;;;;;;;;;5277033;27;20018;-79
2024/04/19 14:40:35;;;;;;;0.75;0.70;;;;;;;;;;5276561;27;20006;-80
2024/04/19 14:43:01;;;;;;;1.57;0.90;;;;;;;;;;5278053;27;20003;-80
2024/04/19 14:45:27;;;;;;;1.50;0.80;;;;;;;;;;5281416;27;20087;-81
2024/04/19 14:48:14;;;;;;;1.77;0.80;;;;;;;;;;5280785;27;20046;-80
2024/04/19 14:50:40;;;;;;;1.02;0.80;;;;;;;;;;5284991;27;20006;-80